createdAt,value
2018-07-02T00:00:05.727Z,4.00
2018-07-02T00:01:05.705Z,4.00
2018-07-02T00:02:05.705Z,4.00
2018-07-02T00:03:05.676Z,4.00
2018-07-02T00:04:05.664Z,4.00
2018-07-02T00:05:05.652Z,4.00
2018-07-02T00:06:05.634Z,4.00
2018-07-02T00:07:05.620Z,4.00
2018-07-02T00:08:05.613Z,4.00
2018-07-02T00:09:05.591Z,4.00
2018-07-02T00:10:05.577Z,4.00
2018-07-02T00:11:05.562Z,4.00
2018-07-02T00:12:05.558Z,4.00
2018-07-02T00:13:05.548Z,4.00
2018-07-02T00:14:05.520Z,4.00
2018-07-02T00:15:05.505Z,4.00
2018-07-02T00:16:05.489Z,4.00
2018-07-02T00:17:05.478Z,4.00
2018-07-02T00:18:05.460Z,4.00
2018-07-02T00:19:05.459Z,4.00
2018-07-02T00:20:05.439Z,4.00
2018-07-02T00:21:05.441Z,4.00
2018-07-02T00:22:05.406Z,4.00
2018-07-02T00:23:05.396Z,4.00
2018-07-02T00:24:05.374Z,4.00
2018-07-02T00:25:05.358Z,4.00
2018-07-02T00:26:05.345Z,4.00
2018-07-02T00:27:05.337Z,4.00
2018-07-02T00:28:05.316Z,4.00
2018-07-02T00:29:05.302Z,4.00
2018-07-02T00:30:05.286Z,4.00
2018-07-02T00:31:05.272Z,4.00
2018-07-02T00:32:05.263Z,4.00
2018-07-02T00:33:05.243Z,4.00
2018-07-02T00:34:05.228Z,4.00
2018-07-02T00:35:05.213Z,4.00
2018-07-02T00:36:05.197Z,4.00
2018-07-02T00:37:05.183Z,4.00
2018-07-02T00:38:05.170Z,4.00
2018-07-02T00:39:05.158Z,4.00
2018-07-02T00:40:05.139Z,4.00
2018-07-02T00:41:05.125Z,4.00
2018-07-02T00:42:05.110Z,4.00
2018-07-02T00:43:05.097Z,4.00
2018-07-02T00:44:05.080Z,4.00
2018-07-02T00:45:05.066Z,4.00
2018-07-02T00:46:05.053Z,4.00
2018-07-02T00:47:05.040Z,4.00
2018-07-02T00:48:05.023Z,4.00
2018-07-02T00:49:05.009Z,4.00
2018-07-02T00:50:04.993Z,4.00
2018-07-02T00:51:04.979Z,4.00
2018-07-02T00:52:04.971Z,4.00
2018-07-02T00:53:04.948Z,4.00
2018-07-02T00:54:04.936Z,4.00
2018-07-02T00:55:04.922Z,4.00
2018-07-02T00:56:04.906Z,4.00
2018-07-02T00:57:04.894Z,4.00
2018-07-02T00:58:04.883Z,4.00
2018-07-02T00:59:04.869Z,4.00
2018-07-02T01:00:04.854Z,4.00
2018-07-02T01:01:04.832Z,4.00
2018-07-02T01:02:04.818Z,4.00
2018-07-02T01:03:04.804Z,4.00
2018-07-02T01:04:04.787Z,4.00
2018-07-02T01:05:04.778Z,4.00
2018-07-02T01:06:04.757Z,4.00
2018-07-02T01:07:04.748Z,4.00
2018-07-02T01:08:04.731Z,4.00
2018-07-02T01:09:04.713Z,4.00
2018-07-02T01:10:04.703Z,4.00
2018-07-02T01:11:04.689Z,4.00
2018-07-02T01:12:04.677Z,4.00
2018-07-02T01:13:04.655Z,4.00
2018-07-02T01:14:04.639Z,4.00
2018-07-02T01:15:04.627Z,4.00
2018-07-02T01:16:04.610Z,4.00
2018-07-02T01:17:04.604Z,4.00
2018-07-02T01:18:04.581Z,4.00
2018-07-02T01:19:04.571Z,4.00
2018-07-02T01:20:04.556Z,4.00
2018-07-02T01:21:04.537Z,4.00
2018-07-02T01:22:04.522Z,4.00
2018-07-02T01:23:04.506Z,4.00
2018-07-02T01:24:04.492Z,4.00
2018-07-02T01:25:04.480Z,4.00
2018-07-02T01:26:04.465Z,4.00
2018-07-02T01:27:04.450Z,4.00
2018-07-02T01:28:04.430Z,4.00
2018-07-02T01:29:04.419Z,4.00
2018-07-02T01:30:04.400Z,4.00
2018-07-02T01:31:04.386Z,4.00
2018-07-02T01:32:04.371Z,4.00
2018-07-02T01:33:04.356Z,4.00
2018-07-02T01:34:04.345Z,4.00
2018-07-02T01:35:04.328Z,4.00
2018-07-02T01:36:04.310Z,4.00
2018-07-02T01:37:04.366Z,4.00
2018-07-02T01:38:04.283Z,4.00
2018-07-02T01:39:04.268Z,4.00
2018-07-02T01:40:04.259Z,4.00
2018-07-02T01:41:04.238Z,4.00
2018-07-02T01:42:04.228Z,4.00
2018-07-02T01:43:04.215Z,4.00
2018-07-02T01:44:04.189Z,4.00
2018-07-02T01:45:04.176Z,4.00
2018-07-02T01:46:04.169Z,4.00
2018-07-02T01:47:04.147Z,4.00
2018-07-02T01:48:04.149Z,4.00
2018-07-02T01:49:04.116Z,4.00
2018-07-02T01:50:04.103Z,4.00
2018-07-02T01:51:04.089Z,4.00
2018-07-02T01:52:04.073Z,4.00
2018-07-02T01:53:04.056Z,4.00
2018-07-02T01:54:04.042Z,4.00
2018-07-02T01:55:04.027Z,4.00
2018-07-02T01:56:04.010Z,4.00
2018-07-02T01:57:04.004Z,4.00
2018-07-02T01:58:03.985Z,4.00
2018-07-02T01:59:03.987Z,4.00
2018-07-02T02:00:03.952Z,4.00
2018-07-02T02:01:03.944Z,4.00
2018-07-02T02:02:03.934Z,4.00
2018-07-02T02:03:03.907Z,4.00
2018-07-02T02:04:03.892Z,4.00
2018-07-02T02:05:03.877Z,4.00
2018-07-02T02:06:03.862Z,4.00
2018-07-02T02:07:03.852Z,4.00
2018-07-02T02:08:03.833Z,4.00
2018-07-02T02:09:03.826Z,4.00
2018-07-02T02:10:03.816Z,8.00
2018-07-02T02:11:03.789Z,8.00
2018-07-02T02:12:03.781Z,8.00
2018-07-02T02:13:03.765Z,8.00
2018-07-02T02:14:03.743Z,4.00
2018-07-02T02:15:03.732Z,4.00
2018-07-02T02:16:03.712Z,4.00
2018-07-02T02:17:03.698Z,4.00
2018-07-02T02:18:03.697Z,4.00
2018-07-02T02:19:03.670Z,4.00
2018-07-02T02:20:03.653Z,4.00
2018-07-02T02:21:03.642Z,4.00
2018-07-02T02:22:03.625Z,4.00
2018-07-02T02:23:03.608Z,4.00
2018-07-02T02:24:03.593Z,4.00
2018-07-02T02:25:03.587Z,4.00
2018-07-02T02:26:03.573Z,8.00
2018-07-02T02:27:03.557Z,8.00
2018-07-02T02:28:03.533Z,4.00
2018-07-02T02:29:03.520Z,4.00
2018-07-02T02:30:03.504Z,8.00
2018-07-02T02:31:03.496Z,8.00
2018-07-02T02:32:03.473Z,4.00
2018-07-02T02:33:03.457Z,8.00
2018-07-02T02:34:03.450Z,8.00
2018-07-02T02:35:03.438Z,8.00
2018-07-02T02:36:03.412Z,8.00
2018-07-02T02:37:03.398Z,8.00
2018-07-02T02:38:03.398Z,12.00
2018-07-02T02:39:03.372Z,12.00
2018-07-02T02:40:03.360Z,12.00
2018-07-02T02:41:03.343Z,12.00
2018-07-02T02:42:03.324Z,12.00
2018-07-02T02:43:03.310Z,12.00
2018-07-02T02:44:03.293Z,16.00
2018-07-02T02:45:03.277Z,16.00
2018-07-02T02:46:03.266Z,20.00
2018-07-02T02:47:03.249Z,20.00
2018-07-02T02:48:03.232Z,24.00
2018-07-02T02:49:03.226Z,20.00
2018-07-02T02:50:03.201Z,24.00
2018-07-02T02:51:03.188Z,28.00
2018-07-02T02:52:03.169Z,28.00
2018-07-02T02:53:03.154Z,36.00
2018-07-02T02:54:03.141Z,40.00
2018-07-02T02:55:03.127Z,44.00
2018-07-02T02:56:03.116Z,48.00
2018-07-02T02:57:03.097Z,52.00
2018-07-02T02:58:03.087Z,60.00
2018-07-02T02:59:03.065Z,64.00
2018-07-02T03:00:03.052Z,68.00
2018-07-02T03:01:03.034Z,76.00
2018-07-02T03:02:03.019Z,84.00
2018-07-02T03:03:03.005Z,92.00
2018-07-02T03:04:02.988Z,104.00
2018-07-02T03:05:02.974Z,112.00
2018-07-02T03:06:03.057Z,120.00
2018-07-02T03:07:02.955Z,132.00
2018-07-02T03:08:02.928Z,144.00
2018-07-02T03:09:02.911Z,156.00
2018-07-02T03:10:02.900Z,168.00
2018-07-02T03:11:02.880Z,180.00
2018-07-02T03:12:02.868Z,196.00
2018-07-02T03:13:02.857Z,208.00
2018-07-02T03:14:02.835Z,224.00
2018-07-02T03:15:02.822Z,240.00
2018-07-02T03:16:02.804Z,260.00
2018-07-02T03:17:02.788Z,276.00
2018-07-02T03:18:02.777Z,292.00
2018-07-02T03:19:02.757Z,312.00
2018-07-02T03:20:02.743Z,332.00
2018-07-02T03:21:02.728Z,352.00
2018-07-02T03:22:02.714Z,372.00
2018-07-02T03:23:02.697Z,392.00
2018-07-02T03:24:02.688Z,416.00
2018-07-02T03:25:02.666Z,440.00
2018-07-02T03:26:02.651Z,460.00
2018-07-02T03:27:02.647Z,484.00
2018-07-02T03:28:02.621Z,508.00
2018-07-02T03:29:02.607Z,528.00
2018-07-02T03:30:02.601Z,556.00
2018-07-02T03:31:02.640Z,580.00
2018-07-02T03:32:02.557Z,604.00
2018-07-02T03:33:02.543Z,628.00
2018-07-02T03:34:02.527Z,656.00
2018-07-02T03:35:02.528Z,680.00
2018-07-02T03:36:02.498Z,704.00
2018-07-02T03:37:02.480Z,732.00
2018-07-02T03:38:02.466Z,760.00
2018-07-02T03:39:02.449Z,784.00
2018-07-02T03:40:02.435Z,812.00
2018-07-02T03:41:02.420Z,836.00
2018-07-02T03:42:02.404Z,860.00
2018-07-02T03:43:02.389Z,888.00
2018-07-02T03:44:02.374Z,916.00
2018-07-02T03:45:02.366Z,940.00
2018-07-02T03:46:02.358Z,968.00
2018-07-02T03:47:02.328Z,992.00
2018-07-02T03:48:02.312Z,1020.00
2018-07-02T03:49:02.296Z,1040.00
2018-07-02T03:50:02.287Z,1068.00
2018-07-02T03:51:02.277Z,1096.00
2018-07-02T03:52:02.309Z,1124.00
2018-07-02T03:53:02.235Z,1144.00
2018-07-02T03:54:02.219Z,1168.00
2018-07-02T03:55:02.205Z,1196.00
2018-07-02T03:56:02.187Z,1220.00
2018-07-02T03:57:02.173Z,1244.00
2018-07-02T03:58:02.156Z,1272.00
2018-07-02T03:59:02.153Z,1292.00
2018-07-02T04:00:02.131Z,1312.00
2018-07-02T04:01:02.113Z,1340.00
2018-07-02T04:02:02.096Z,1364.00
2018-07-02T04:03:02.081Z,1388.00
2018-07-02T04:04:02.068Z,1408.00
2018-07-02T04:05:02.051Z,1428.00
2018-07-02T04:06:02.042Z,1452.00
2018-07-02T04:07:02.019Z,1472.00
2018-07-02T04:08:02.035Z,1500.00
2018-07-02T04:09:01.988Z,1524.00
2018-07-02T04:10:01.973Z,1544.00
2018-07-02T04:11:01.959Z,1564.00
2018-07-02T04:12:02.001Z,1584.00
2018-07-02T04:13:01.954Z,1612.00
2018-07-02T04:14:01.911Z,1628.00
2018-07-02T04:15:01.897Z,1648.00
2018-07-02T04:16:01.886Z,1668.00
2018-07-02T04:17:01.868Z,1676.00
2018-07-02T04:18:01.851Z,1692.00
2018-07-02T04:19:01.834Z,1712.00
2018-07-02T04:20:01.822Z,1732.00
2018-07-02T04:21:01.803Z,1752.00
2018-07-02T04:22:01.797Z,1768.00
2018-07-02T04:23:01.779Z,1792.00
2018-07-02T04:24:01.755Z,1808.00
2018-07-02T04:25:01.750Z,1828.00
2018-07-02T04:26:01.742Z,1852.00
2018-07-02T04:27:01.712Z,1868.00
2018-07-02T04:28:01.696Z,1884.00
2018-07-02T04:29:01.679Z,1904.00
2018-07-02T04:30:01.664Z,1924.00
2018-07-02T04:31:01.660Z,1944.00
2018-07-02T04:32:01.732Z,1960.00
2018-07-02T04:33:01.625Z,1976.00
2018-07-02T04:34:01.601Z,1992.00
2018-07-02T04:35:01.588Z,2012.00
2018-07-02T04:36:01.570Z,2028.00
2018-07-02T04:37:01.571Z,2048.00
2018-07-02T04:38:01.540Z,2060.00
2018-07-02T04:39:01.523Z,2088.00
2018-07-02T04:40:01.508Z,2100.00
2018-07-02T04:41:01.492Z,2112.00
2018-07-02T04:42:01.478Z,2124.00
2018-07-02T04:43:01.464Z,2140.00
2018-07-02T04:44:01.446Z,2168.00
2018-07-02T04:45:01.430Z,2180.00
2018-07-02T04:46:01.415Z,2192.00
2018-07-02T04:47:01.398Z,2208.00
2018-07-02T04:48:01.384Z,2228.00
2018-07-02T04:49:01.371Z,2252.00
2018-07-02T04:50:01.352Z,2260.00
2018-07-02T04:51:01.434Z,2276.00
2018-07-02T04:52:01.320Z,2304.00
2018-07-02T04:53:01.309Z,2316.00
2018-07-02T04:54:01.300Z,2328.00
2018-07-02T04:55:01.284Z,2344.00
2018-07-02T04:56:01.271Z,2364.00
2018-07-02T04:57:01.249Z,2380.00
2018-07-02T04:58:01.243Z,2404.00
2018-07-02T04:59:01.218Z,2420.00
2018-07-02T05:00:01.197Z,2448.00
2018-07-02T05:01:01.194Z,2488.00
2018-07-02T05:02:01.178Z,2536.00
2018-07-02T05:03:01.152Z,2544.00
2018-07-02T05:04:01.135Z,2564.00
2018-07-02T05:05:01.121Z,2572.00
2018-07-02T05:06:01.106Z,2600.00
2018-07-02T05:07:01.093Z,2608.00
2018-07-02T05:08:01.074Z,2628.00
2018-07-02T05:09:01.059Z,2648.00
2018-07-02T05:10:01.050Z,2660.00
2018-07-02T05:11:01.029Z,2684.00
2018-07-02T05:12:01.013Z,2704.00
2018-07-02T05:13:01.001Z,2724.00
2018-07-02T05:14:00.982Z,2740.00
2018-07-02T05:15:00.975Z,2756.00
2018-07-02T05:16:00.953Z,2772.00
2018-07-02T05:17:00.982Z,2796.00
2018-07-02T05:18:00.921Z,2816.00
2018-07-02T05:19:00.907Z,2832.00
2018-07-02T05:20:00.899Z,2876.00
2018-07-02T05:21:00.873Z,2900.00
2018-07-02T05:22:00.861Z,2940.00
2018-07-02T05:23:00.844Z,2992.00
2018-07-02T05:24:00.835Z,3060.00
2018-07-02T05:25:00.824Z,3068.00
2018-07-02T05:26:00.797Z,3108.00
2018-07-02T05:27:00.783Z,3164.00
2018-07-02T05:28:00.765Z,3168.00
2018-07-02T05:29:00.751Z,3168.00
2018-07-02T05:30:00.736Z,3192.00
2018-07-02T05:31:00.721Z,3212.00
2018-07-02T05:32:00.705Z,3236.00
2018-07-02T05:33:00.689Z,3276.00
2018-07-02T05:34:00.775Z,3344.00
2018-07-02T05:35:00.659Z,3352.00
2018-07-02T05:36:00.643Z,3404.00
2018-07-02T05:37:00.629Z,3460.00
2018-07-02T05:38:00.614Z,3536.00
2018-07-02T05:39:00.598Z,3648.00
2018-07-02T05:40:00.583Z,3784.00
2018-07-02T05:41:00.566Z,4028.00
2018-07-02T05:42:00.553Z,4492.00
2018-07-02T05:43:00.538Z,5252.00
2018-07-02T05:44:00.529Z,17120.00
2018-07-02T05:45:00.513Z,48288.00
2018-07-02T05:46:00.493Z,56608.00
2018-07-02T05:47:00.486Z,51008.00
2018-07-02T05:48:00.460Z,51136.00
2018-07-02T05:49:00.454Z,57216.00
2018-07-02T05:50:00.441Z,63552.00
2018-07-02T05:51:00.417Z,65056.00
2018-07-02T05:52:00.403Z,64000.00
2018-07-02T05:53:00.402Z,62816.00
2018-07-02T05:54:00.388Z,65024.00
2018-07-02T05:55:00.367Z,68128.00
2018-07-02T05:56:00.354Z,68800.00
2018-07-02T05:57:00.341Z,66656.00
2018-07-02T05:58:00.330Z,64352.00
2018-07-02T05:59:00.320Z,63584.00
2018-07-02T06:00:00.310Z,63840.00
2018-07-02T06:01:00.310Z,62880.00
2018-07-02T06:02:00.289Z,62880.00
2018-07-02T06:03:00.278Z,65792.00
2018-07-02T06:04:00.273Z,68288.00
2018-07-02T06:05:00.306Z,66240.00
2018-07-02T06:06:00.303Z,63840.00
2018-07-02T06:07:00.242Z,62560.00
2018-07-02T06:08:00.311Z,63072.00
2018-07-02T06:09:00.232Z,63968.00
2018-07-02T06:10:00.224Z,64704.00
2018-07-02T06:11:00.212Z,66400.00
2018-07-02T06:12:00.203Z,68928.00
2018-07-02T06:13:00.209Z,67808.00
2018-07-02T06:14:00.200Z,63072.00
2018-07-02T06:15:00.194Z,57984.00
2018-07-02T06:16:00.179Z,61184.00
2018-07-02T06:17:00.171Z,66848.00
2018-07-02T06:18:00.168Z,67776.00
2018-07-02T06:19:00.162Z,67936.00
2018-07-02T06:20:00.155Z,72352.00
2018-07-02T06:21:00.151Z,76352.00
2018-07-02T06:22:00.168Z,74880.00
2018-07-02T06:23:00.149Z,71296.00
2018-07-02T06:24:00.138Z,69568.00
2018-07-02T06:25:00.133Z,68096.00
2018-07-02T06:26:00.139Z,65440.00
2018-07-02T06:27:00.142Z,63936.00
2018-07-02T06:28:00.125Z,62208.00
2018-07-02T06:29:00.117Z,56480.00
2018-07-02T06:30:00.118Z,57504.00
2018-07-02T06:31:00.117Z,66400.00
2018-07-02T06:32:00.114Z,75776.00
2018-07-02T06:33:00.102Z,78272.00
2018-07-02T06:34:00.110Z,70592.00
2018-07-02T06:35:00.102Z,67456.00
2018-07-02T06:36:00.093Z,73856.00
2018-07-02T06:37:00.239Z,77056.00
2018-07-02T06:38:00.091Z,70528.00
2018-07-02T06:39:00.085Z,65920.00
2018-07-02T06:40:00.084Z,66432.00
2018-07-02T06:41:00.089Z,69856.00
2018-07-02T06:42:00.102Z,72096.00
2018-07-02T06:43:00.094Z,72448.00
2018-07-02T06:44:00.075Z,68160.00
2018-07-02T06:45:00.080Z,65472.00
2018-07-02T06:46:00.080Z,70944.00
2018-07-02T06:47:00.070Z,72960.00
2018-07-02T06:48:00.073Z,64864.00
2018-07-02T06:49:00.070Z,54848.00
2018-07-02T06:50:00.071Z,49152.00
2018-07-02T06:51:00.068Z,49152.00
2018-07-02T06:52:00.077Z,49088.00
2018-07-02T06:53:00.121Z,48480.00
2018-07-02T06:54:00.067Z,48032.00
2018-07-02T06:55:00.072Z,44512.00
2018-07-02T06:56:00.067Z,46528.00
2018-07-02T06:57:00.075Z,47616.00
2018-07-02T06:58:00.071Z,49312.00
2018-07-02T06:59:00.071Z,52992.00
2018-07-02T07:00:00.072Z,55712.00
2018-07-02T07:01:00.096Z,52512.00
2018-07-02T07:02:00.072Z,50208.00
2018-07-02T07:03:00.123Z,52000.00
2018-07-02T07:04:00.073Z,50464.00
2018-07-02T07:05:00.078Z,51520.00
2018-07-02T07:06:00.077Z,58656.00
2018-07-02T07:07:00.078Z,64288.00
2018-07-02T07:08:00.080Z,64064.00
2018-07-02T07:09:00.083Z,41792.00
2018-07-02T07:10:00.083Z,36608.00
2018-07-02T07:11:00.085Z,40000.00
2018-07-02T07:12:00.094Z,68384.00
2018-07-02T07:13:00.095Z,71392.00
2018-07-02T07:14:00.088Z,75328.00
2018-07-02T07:15:00.099Z,74400.00
2018-07-02T07:16:00.091Z,70272.00
2018-07-02T07:17:00.101Z,72864.00
2018-07-02T07:18:00.093Z,78272.00
2018-07-02T07:19:00.095Z,82368.00
2018-07-02T07:20:00.095Z,83520.00
2018-07-02T07:21:00.096Z,83392.00
2018-07-02T07:22:00.098Z,81536.00
2018-07-02T07:23:00.098Z,87328.00
2018-07-02T07:24:00.100Z,95488.00
2018-07-02T07:25:00.102Z,104096.00
2018-07-02T07:26:00.113Z,111104.00
2018-07-02T07:27:00.113Z,107104.00
2018-07-02T07:28:00.110Z,97632.00
2018-07-02T07:29:00.106Z,87008.00
2018-07-02T07:30:00.129Z,82592.00
2018-07-02T07:31:00.120Z,87424.00
2018-07-02T07:32:00.116Z,91392.00
2018-07-02T07:33:00.113Z,95392.00
2018-07-02T07:34:00.116Z,96032.00
2018-07-02T07:35:00.117Z,92544.00
2018-07-02T07:36:00.136Z,95104.00
2018-07-02T07:37:00.122Z,94400.00
2018-07-02T07:38:00.122Z,84288.00
2018-07-02T07:39:00.125Z,68288.00
2018-07-02T07:40:00.133Z,37120.00
2018-07-02T07:41:00.130Z,78656.00
2018-07-02T07:42:00.134Z,31232.00
2018-07-02T07:43:00.153Z,18784.00
2018-07-02T07:44:00.140Z,9100.00
2018-07-02T07:45:00.140Z,9740.00
2018-07-02T07:46:00.142Z,7284.00
2018-07-02T07:47:00.142Z,4352.00
2018-07-02T07:48:00.146Z,7708.00
2018-07-02T07:49:00.138Z,7268.00
2018-07-02T07:50:00.147Z,6696.00
2018-07-02T07:51:00.148Z,6512.00
2018-07-02T07:52:00.135Z,6492.00
2018-07-02T07:53:00.152Z,11104.00
2018-07-02T07:54:00.130Z,11444.00
2018-07-02T07:55:00.142Z,0.00
2018-07-02T07:56:00.136Z,16864.00
2018-07-02T07:57:00.121Z,8396.00
2018-07-02T07:58:00.120Z,10956.00
2018-07-02T07:59:00.113Z,9636.00
2018-07-02T08:00:00.117Z,8564.00
2018-07-02T08:01:00.109Z,7444.00
2018-07-02T08:02:00.100Z,12584.00
2018-07-02T08:03:00.098Z,8212.00
2018-07-02T08:04:00.094Z,8656.00
2018-07-02T08:05:00.086Z,15788.00
2018-07-02T08:06:00.081Z,7876.00
2018-07-02T08:07:00.085Z,26880.00
2018-07-02T08:08:00.072Z,15744.00
2018-07-02T08:09:00.067Z,65760.00
2018-07-02T08:10:00.067Z,22208.00
2018-07-02T08:11:00.059Z,9216.00
2018-07-02T08:12:00.054Z,29152.00
2018-07-02T08:13:00.048Z,31360.00
2018-07-02T08:14:00.060Z,7116.00
2018-07-02T08:15:00.067Z,15904.00
2018-07-02T08:16:00.033Z,19872.00
2018-07-02T08:17:00.029Z,26976.00
2018-07-02T08:18:00.031Z,20320.00
2018-07-02T08:19:00.055Z,12016.00
2018-07-02T08:20:00.019Z,5268.00
2018-07-02T08:21:00.007Z,5136.00
2018-07-02T08:22:00.010Z,5576.00
2018-07-02T08:22:59.993Z,5308.00
2018-07-02T08:24:00.009Z,5172.00
2018-07-02T08:24:59.980Z,5100.00
2018-07-02T08:25:59.981Z,0.00
2018-07-02T08:26:59.969Z,5572.00
2018-07-02T08:27:59.973Z,6156.00
2018-07-02T08:28:59.960Z,5572.00
2018-07-02T08:29:59.956Z,5544.00
2018-07-02T08:30:59.955Z,5808.00
2018-07-02T08:31:59.942Z,5516.00
2018-07-02T08:33:00.013Z,5464.00
2018-07-02T08:33:59.930Z,8256.00
2018-07-02T08:34:59.921Z,5552.00
2018-07-02T08:35:59.910Z,8068.00
2018-07-02T08:36:59.904Z,6308.00
2018-07-02T08:37:59.897Z,5712.00
2018-07-02T08:40:14.438Z,6064.00
2018-07-02T08:42:24.333Z,24608.00
2018-07-02T08:43:20.492Z,3888.00
2018-07-02T08:51:06.638Z,6124.00
2018-07-02T08:52:06.625Z,8204.00
2018-07-02T08:53:06.611Z,28064.00
2018-07-02T08:54:06.602Z,10168.00
2018-07-02T08:55:06.603Z,8032.00
2018-07-02T08:56:06.597Z,6896.00
2018-07-02T08:57:06.584Z,8796.00
2018-07-02T08:58:06.571Z,9776.00
2018-07-02T08:59:06.560Z,8092.00
2018-07-02T09:00:06.550Z,11640.00
2018-07-02T09:01:06.552Z,21088.00
2018-07-02T09:02:06.533Z,39392.00
2018-07-02T09:03:06.524Z,38368.00
2018-07-02T09:04:06.537Z,48096.00
2018-07-02T09:05:06.511Z,5120.00
2018-07-02T09:06:06.502Z,121376.00
2018-07-02T09:07:06.490Z,98016.00
2018-07-02T09:08:06.480Z,40384.00
2018-07-02T09:09:06.484Z,120320.00
2018-07-02T09:10:06.467Z,19840.00
2018-07-02T09:11:06.473Z,20708.00
2018-07-02T09:12:06.451Z,71136.00
2018-07-02T09:13:06.451Z,106624.00
2018-07-02T09:14:06.434Z,109792.00
2018-07-02T09:15:06.428Z,117664.00
2018-07-02T09:16:06.421Z,106624.00
2018-07-02T09:17:06.423Z,116864.00
2018-07-02T09:18:06.423Z,114784.00
2018-07-02T09:19:06.405Z,109888.00
2018-07-02T09:20:06.399Z,110880.00
2018-07-02T09:21:06.394Z,111072.00
2018-07-02T09:22:06.391Z,112864.00
2018-07-02T09:23:06.386Z,108032.00
2018-07-02T09:24:06.389Z,107072.00
2018-07-02T09:25:06.381Z,115136.00
2018-07-02T09:26:06.384Z,7168.00
2018-07-02T09:27:06.376Z,88832.00
2018-07-02T09:28:06.385Z,17824.00
2018-07-02T09:29:06.371Z,18368.00
2018-07-02T09:30:06.374Z,99264.00
2018-07-02T09:31:06.367Z,88608.00
2018-07-02T09:32:06.374Z,60704.00
2018-07-02T09:33:06.363Z,0.00
2018-07-02T09:34:06.361Z,114752.00
2018-07-02T09:35:06.376Z,110816.00
2018-07-02T09:36:06.358Z,90784.00
2018-07-02T09:37:06.357Z,105888.00
2018-07-02T09:38:06.371Z,104608.00
2018-07-02T09:39:06.359Z,105952.00
2018-07-02T09:40:06.363Z,105216.00
2018-07-02T09:41:06.351Z,93216.00
2018-07-02T09:42:06.349Z,88416.00
2018-07-02T09:43:06.351Z,92512.00
2018-07-02T09:44:06.349Z,7548.00
2018-07-02T09:45:06.348Z,92768.00
2018-07-02T09:46:06.349Z,33760.00
2018-07-02T09:47:06.350Z,13052.00
2018-07-02T09:48:06.347Z,12404.00
2018-07-02T09:49:06.345Z,12024.00
2018-07-02T09:50:06.346Z,12212.00
2018-07-02T09:51:06.346Z,11836.00
2018-07-02T09:52:06.351Z,45792.00
2018-07-02T09:53:06.394Z,9584.00
2018-07-02T09:54:06.351Z,16608.00
2018-07-02T09:55:06.341Z,108832.00
2018-07-02T09:56:06.339Z,107200.00
2018-07-02T09:57:06.341Z,121888.00
2018-07-02T09:58:06.344Z,104704.00
2018-07-02T09:59:06.582Z,38368.00
2018-07-02T10:00:06.334Z,37664.00
2018-07-02T10:01:06.351Z,117088.00
2018-07-02T10:02:06.333Z,94880.00
2018-07-02T10:03:06.334Z,108128.00
2018-07-02T10:04:06.331Z,52544.00
2018-07-02T10:05:06.333Z,116000.00
2018-07-02T10:06:06.331Z,70208.00
2018-07-02T10:07:06.331Z,17600.00
2018-07-02T10:08:06.330Z,18784.00
2018-07-02T10:09:06.345Z,20256.00
2018-07-02T10:10:06.361Z,33984.00
2018-07-02T10:11:06.327Z,60672.00
2018-07-02T10:12:06.333Z,19168.00
2018-07-02T10:13:06.334Z,55136.00
2018-07-02T10:14:06.324Z,122240.00
2018-07-02T10:15:06.335Z,37632.00
2018-07-02T10:16:06.325Z,117952.00
2018-07-02T10:17:06.334Z,121600.00
2018-07-02T10:18:06.332Z,125024.00
2018-07-02T10:19:06.330Z,126912.00
2018-07-02T10:20:06.333Z,126784.00
2018-07-02T10:21:06.337Z,126272.00
2018-07-02T10:22:06.331Z,128512.00
2018-07-02T10:23:06.334Z,133536.00
2018-07-02T10:24:06.340Z,129312.00
2018-07-02T10:25:06.335Z,122336.00
2018-07-02T10:26:06.345Z,126496.00
2018-07-02T10:27:06.339Z,125184.00
2018-07-02T10:28:06.342Z,122368.00
2018-07-02T10:29:06.375Z,121696.00
2018-07-02T10:30:06.349Z,123488.00
2018-07-02T10:31:06.390Z,124512.00
2018-07-02T10:32:06.362Z,124928.00
2018-07-02T10:33:06.356Z,122272.00
2018-07-02T10:34:06.359Z,121824.00
2018-07-02T10:35:06.372Z,125024.00
2018-07-02T10:36:06.383Z,122112.00
2018-07-02T10:37:06.375Z,119680.00
2018-07-02T10:38:06.378Z,120768.00
2018-07-02T10:39:06.382Z,123744.00
2018-07-02T10:40:06.386Z,122112.00
2018-07-02T10:41:06.713Z,119264.00
2018-07-02T10:42:06.398Z,117984.00
2018-07-02T10:43:06.399Z,114880.00
2018-07-02T10:44:06.412Z,113024.00
2018-07-02T10:45:06.407Z,110144.00
2018-07-02T10:46:06.413Z,114592.00
2018-07-02T10:47:06.476Z,115392.00
2018-07-02T10:48:06.422Z,115136.00
2018-07-02T10:49:06.427Z,110592.00
2018-07-02T10:50:06.434Z,108224.00
2018-07-02T10:51:06.440Z,110624.00
2018-07-02T10:52:06.446Z,115008.00
2018-07-02T10:53:06.457Z,119808.00
2018-07-02T10:54:06.464Z,118176.00
2018-07-02T10:55:06.476Z,114048.00
2018-07-02T10:56:06.476Z,114752.00
2018-07-02T10:57:06.480Z,113760.00
2018-07-02T10:58:06.478Z,113408.00
2018-07-02T10:59:06.491Z,109888.00
2018-07-02T11:00:06.503Z,110592.00
2018-07-02T11:01:06.507Z,111616.00
2018-07-02T11:02:06.505Z,108832.00
2018-07-02T11:03:06.510Z,111744.00
2018-07-02T11:04:06.516Z,115168.00
2018-07-02T11:05:06.526Z,113088.00
2018-07-02T11:06:06.542Z,110048.00
2018-07-02T11:07:06.537Z,105440.00
2018-07-02T11:08:06.547Z,104448.00
2018-07-02T11:09:06.546Z,103872.00
2018-07-02T11:10:06.611Z,107360.00
2018-07-02T11:11:06.562Z,110688.00
2018-07-02T11:12:06.565Z,110208.00
2018-07-02T11:13:06.570Z,109632.00
2018-07-02T11:14:06.578Z,109024.00
2018-07-02T11:15:06.590Z,108480.00
2018-07-02T11:16:06.594Z,104928.00
2018-07-02T11:17:06.611Z,107200.00
2018-07-02T11:18:06.613Z,108448.00
2018-07-02T11:19:06.628Z,106720.00
2018-07-02T11:20:06.723Z,97440.00
2018-07-02T11:21:06.623Z,92352.00
2018-07-02T11:22:06.630Z,96000.00
2018-07-02T11:23:06.639Z,102560.00
2018-07-02T11:24:06.646Z,107232.00
2018-07-02T11:25:06.656Z,109824.00
2018-07-02T11:26:06.677Z,109984.00
2018-07-02T11:27:06.679Z,105888.00
2018-07-02T11:28:06.685Z,100320.00
2018-07-02T11:29:06.691Z,97568.00
2018-07-02T11:30:06.690Z,94720.00
2018-07-02T11:31:06.699Z,93696.00
2018-07-02T11:32:06.703Z,88384.00
2018-07-02T11:33:06.717Z,90208.00
2018-07-02T11:34:06.715Z,92928.00
2018-07-02T11:35:06.723Z,97280.00
2018-07-02T11:36:06.727Z,100416.00
2018-07-02T11:37:06.735Z,101152.00
2018-07-02T11:38:06.749Z,101984.00
2018-07-02T11:39:06.757Z,104480.00
2018-07-02T11:40:06.763Z,105344.00
2018-07-02T11:41:06.759Z,108352.00
2018-07-02T11:42:06.766Z,104064.00
2018-07-02T11:43:06.779Z,100096.00
2018-07-02T11:44:06.821Z,102176.00
2018-07-02T11:45:06.790Z,105696.00
2018-07-02T11:46:06.788Z,105472.00
2018-07-02T11:47:06.792Z,103392.00
2018-07-02T11:48:06.853Z,67424.00
2018-07-02T11:49:06.806Z,17856.00
2018-07-02T11:50:06.812Z,5520.00
2018-07-02T11:51:06.813Z,4828.00
2018-07-02T11:52:06.818Z,4636.00
2018-07-02T11:53:06.817Z,4524.00
2018-07-02T11:54:06.818Z,4436.00
2018-07-02T11:55:06.823Z,4392.00
2018-07-02T11:56:06.824Z,4320.00
2018-07-02T11:57:06.824Z,4296.00
2018-07-02T11:58:06.826Z,4260.00
2018-07-02T11:59:06.839Z,4228.00
2018-07-02T12:00:06.824Z,4232.00
2018-07-02T12:01:06.843Z,4216.00
2018-07-02T12:02:06.831Z,4220.00
2018-07-02T12:03:06.831Z,4200.00
2018-07-02T12:04:06.850Z,4176.00
2018-07-02T12:05:06.820Z,4176.00
2018-07-02T12:06:06.824Z,4156.00
2018-07-02T12:07:06.825Z,4188.00
2018-07-02T12:08:06.812Z,4160.00
2018-07-02T12:09:06.808Z,4148.00
2018-07-02T12:10:06.804Z,4148.00
2018-07-02T12:11:06.802Z,4104.00
2018-07-02T12:12:06.804Z,4120.00
2018-07-02T12:13:06.811Z,4076.00
2018-07-02T12:14:06.788Z,4072.00
2018-07-02T12:15:06.788Z,4064.00
2018-07-02T12:16:06.780Z,4016.00
2018-07-02T12:17:06.774Z,4024.00
2018-07-02T12:18:06.769Z,4032.00
2018-07-02T12:19:06.769Z,3976.00